createdAt,value
2023-03-16T00:04:16.480Z,0.9
2023-03-16T00:14:18.694Z,0.6
2023-03-16T00:24:21.023Z,0.7
2023-03-16T00:34:23.555Z,1
2023-03-16T00:44:25.579Z,1
2023-03-16T00:54:27.294Z,0.9
2023-03-16T01:04:29.723Z,0.9
2023-03-16T01:14:32.317Z,0.9
2023-03-16T01:34:36.423Z,0.4
2023-03-16T01:44:38.195Z,0.4
2023-03-16T02:04:42.113Z,1.1
2023-03-16T02:24:46.236Z,1.4
2023-03-16T02:44:51.185Z,1.5
2023-03-16T02:54:52.981Z,1.4
2023-03-16T03:04:55.472Z,1.4
2023-03-16T03:14:58.118Z,1.7
2023-03-16T03:25:00.134Z,2
2023-03-16T03:35:02.010Z,1.9
2023-03-16T03:45:03.934Z,2.1
2023-03-16T04:05:07.567Z,1.9
2023-03-16T04:25:12.322Z,1.8
2023-03-16T04:35:14.155Z,1.8
2023-03-16T04:45:16.540Z,2
2023-03-16T04:55:19.045Z,2
2023-03-16T05:05:20.825Z,2.2
2023-03-16T05:15:22.931Z,2.2
2023-03-16T05:25:24.620Z,2.3
2023-03-16T05:35:26.866Z,2.6
2023-03-16T05:45:29.123Z,3
2023-03-16T05:55:30.991Z,3.2
2023-03-16T06:05:33.040Z,3.3
2023-03-16T06:15:34.899Z,3.3
2023-03-16T06:25:40.204Z,3.6
2023-03-16T06:35:39.364Z,3.7
2023-03-16T06:45:41.280Z,3.8
2023-03-16T06:55:43.070Z,4.1
2023-03-16T07:05:45.337Z,4.3
2023-03-16T07:15:47.091Z,4.5
2023-03-16T07:25:48.757Z,4.7
2023-03-16T07:35:50.863Z,4.9
2023-03-16T07:45:53.214Z,4.9
2023-03-16T07:55:55.736Z,5
2023-03-16T08:05:58.209Z,5.8
2023-03-16T08:16:00.839Z,6.1
2023-03-16T08:26:02.606Z,6.1
2023-03-16T08:36:04.340Z,6.7
2023-03-16T08:46:06.485Z,6.5
2023-03-16T08:56:08.873Z,6.3
2023-03-16T09:06:10.588Z,6.2
2023-03-16T09:16:13.174Z,6.1
2023-03-16T09:26:15.164Z,6.2
2023-03-16T09:36:17.501Z,6.2
2023-03-16T09:46:19.193Z,6.4
2023-03-16T10:06:23.335Z,6.7
2023-03-16T10:16:25.311Z,6.9
2023-03-16T10:26:27.781Z,7.4
2023-03-16T10:36:30.368Z,7
2023-03-16T10:46:32.647Z,7.2
2023-03-16T10:56:35.120Z,7.2
2023-03-16T11:06:36.996Z,7.2
2023-03-16T11:16:38.969Z,7.2
2023-03-16T11:36:43.529Z,7.6
2023-03-16T11:46:45.639Z,7.9
2023-03-16T11:56:47.401Z,8.5
2023-03-16T12:06:49.845Z,8.4
2023-03-16T12:16:52.124Z,9.4
2023-03-16T12:26:53.910Z,9.6
2023-03-16T12:36:56.229Z,10
2023-03-16T12:46:58.196Z,9.9
2023-03-16T12:57:00.018Z,9.8
2023-03-16T13:07:02.178Z,9.7
2023-03-16T13:17:04.072Z,9.7
2023-03-16T13:27:06.245Z,10
2023-03-16T13:37:08.175Z,10.3
2023-03-16T13:47:09.962Z,10.6
2023-03-16T13:57:11.679Z,11
2023-03-16T14:07:13.763Z,10.8
2023-03-16T14:17:15.912Z,10.7
2023-03-16T14:27:18.142Z,10.7
2023-03-16T14:37:20.128Z,10.6
2023-03-16T14:47:22.112Z,10.7
2023-03-16T14:57:23.964Z,10.8
2023-03-16T15:07:26.534Z,10.8
2023-03-16T15:17:29.012Z,10.9
2023-03-16T15:27:31.491Z,10.7
2023-03-16T15:37:33.196Z,10.8
2023-03-16T15:57:37.365Z,11.1
2023-03-16T16:07:39.710Z,11.1
2023-03-16T16:17:53.987Z,11
2023-03-16T16:27:44.172Z,10.8
2023-03-16T16:37:45.834Z,10.7
2023-03-16T16:47:48.215Z,10.6
2023-03-16T16:57:50.512Z,10.4
2023-03-16T17:07:53.082Z,10.2
2023-03-16T17:17:55.229Z,9.9
2023-03-16T17:27:57.626Z,9.6
2023-03-16T17:38:00.004Z,9.6
2023-03-16T17:48:02.088Z,9.3
2023-03-16T17:58:04.005Z,9.1
2023-03-16T18:08:05.677Z,9
2023-03-16T18:18:07.593Z,8.8
2023-03-16T18:28:09.617Z,8.7
2023-03-16T18:38:11.863Z,8.6
2023-03-16T18:48:14.020Z,8.6
2023-03-16T18:58:16.162Z,8.6
2023-03-16T19:08:18.008Z,8.4
2023-03-16T19:18:20.419Z,8.5
2023-03-16T19:28:22.660Z,8.6
2023-03-16T19:38:24.358Z,8.5
2023-03-16T19:58:28.650Z,8.5
2023-03-16T20:08:31.303Z,8.6
2023-03-16T20:18:33.776Z,8.4
2023-03-16T20:28:36.422Z,8.4
2023-03-16T20:38:38.048Z,8.4
2023-03-16T20:48:39.897Z,8.5
2023-03-16T20:48:46.794Z,8.5
2023-03-16T20:58:48.602Z,8.5
2023-03-16T21:08:50.949Z,8.4
2023-03-16T21:18:53.129Z,8.3
2023-03-16T21:38:57.368Z,8.3
2023-03-16T21:48:59.221Z,8.2
2023-03-16T21:59:01.060Z,8.2
2023-03-16T22:19:05.475Z,8
2023-03-16T22:39:09.732Z,8.1
2023-03-16T22:59:14.019Z,8
2023-03-16T23:09:16.195Z,8.1
2023-03-16T23:19:24.216Z,8.2
2023-03-16T23:29:21.143Z,8.4
2023-03-16T23:39:23.673Z,8.2
2023-03-16T23:49:26.196Z,8.3
2023-03-16T23:59:28.038Z,8.4
